Time;durP1;ratioP1;P1;durP2;ratioP2;P2;SDS_P1;SDS_P2;PMS_P1;PMS_P2;Temp;Humidity;BMP_temperature;BMP_pressure;BME280_temperature;BME280_humidity;BME280_pressure;Samples;Min_cycle;Max_cycle;Signal;HPM_P1;HPM_P2
2022/06/15 00:01:00;;;;;;;;;;;;;;;18.31;78.87;101051.03;5016151;28;20377;-84
2022/06/15 00:03:30;;;;;;;;;;;;;;;18.35;78.66;101046.84;5014425;28;19921;-85
2022/06/15 00:06:04;;;;;;;;;;;;;;;18.38;78.78;101051.03;5006204;28;19925;-85
2022/06/15 00:08:33;;;;;;;;;;;;;;;18.43;78.23;101051.28;5015900;28;19976;-86
2022/06/15 00:11:03;;;;;;;;;;;;;;;18.43;79.12;101048.56;5014078;28;19917;-83
2022/06/15 00:13:31;;;;;;;;;;;;;;;18.50;78.09;101052.97;4989628;28;19924;-83
2022/06/15 00:15:59;;;;;;;;;;;;;;;18.48;79.14;101046.06;5010723;28;20325;-83
2022/06/15 00:18:28;;;;;;;;;;;;;;;18.55;78.46;101055.94;5003030;28;20301;-83
2022/06/15 00:20:54;;;;;;;;;;;;;;;18.62;78.22;101055.13;5011259;28;20020;-83
2022/06/15 00:23:20;;;;;;;;;;;;;;;18.64;77.56;101056.59;5025699;28;19960;-83
2022/06/15 00:25:49;;;;;;;;;;;;;;;18.69;77.53;101064.97;5012700;28;19963;-83
2022/06/15 00:28:14;;;;;;;;;;;;;;;18.59;78.12;101070.00;5009470;28;20362;-82
2022/06/15 00:30:40;;;;;;;;;;;;;;;18.61;77.98;101073.31;5011356;28;19917;-82
2022/06/15 00:33:06;;;;;;;;;;;;;;;18.49;77.58;101066.78;5001274;28;19917;-81
2022/06/15 00:35:31;;;;;;;;;;;;;;;18.60;77.12;101074.38;5013972;28;19917;-83
2022/06/15 00:37:56;;;;;;;;;;;;;;;18.69;77.71;101064.16;5014344;28;19917;-82
2022/06/15 00:40:21;;;;;;;;;;;;;;;18.69;76.37;101075.88;5007521;28;19917;-82
2022/06/15 00:42:47;;;;;;;;;;;;;;;18.71;76.35;101076.50;5011385;28;19917;-83
2022/06/15 00:45:13;;;;;;;;;;;;;;;18.73;75.50;101071.72;5026546;28;19917;-82
2022/06/15 00:47:39;;;;;;;;;;;;;;;18.60;76.88;101077.09;5012703;28;19928;-83
2022/06/15 00:50:10;;;;;;;;;;;;;;;18.67;74.99;101067.06;5004925;28;19918;-82
2022/06/15 00:53:07;;;;;;;;;;;;;;;18.52;76.02;101080.00;5008878;28;19918;-83
2022/06/15 00:55:32;;;;;;;;;;;;;;;18.60;76.21;101071.66;4997398;28;19921;-83
2022/06/15 00:58:01;;;;;;;;;;;;;;;18.54;76.72;101069.72;5010014;28;20462;-81
2022/06/15 01:00:28;;;;;;;;;;;;;;;18.58;76.24;101072.91;5012498;28;20393;-82
2022/06/15 01:02:53;;;;;;;;;;;;;;;18.61;76.49;101065.16;5009985;28;19921;-82
2022/06/15 01:05:26;;;;;;;;;;;;;;;18.54;75.91;101067.00;5005994;28;20314;-82
2022/06/15 01:07:56;;;;;;;;;;;;;;;18.61;75.09;101072.47;5010731;28;19917;-82
2022/06/15 01:10:25;;;;;;;;;;;;;;;18.57;75.36;101066.63;5009625;28;21301;-82
2022/06/15 01:12:50;;;;;;;;;;;;;;;18.47;76.44;101071.59;5011400;28;20412;-82
2022/06/15 01:15:55;;;;;;;;;;;;;;;18.43;74.33;101064.91;5009953;28;19960;-83
2022/06/15 01:18:49;;;;;;;;;;;;;;;18.43;75.26;101070.34;4949532;28;20074;-82
2022/06/15 01:21:21;;;;;;;;;;;;;;;18.48;75.39;101076.00;4924073;29;19925;-82
2022/06/15 01:23:50;;;;;;;;;;;;;;;18.38;74.34;101072.81;4951090;28;19977;-82
2022/06/15 01:26:36;;;;;;;;;;;;;;;18.29;74.19;101070.28;4950756;28;20314;-82
2022/06/15 01:29:20;;;;;;;;;;;;;;;18.33;73.76;101074.28;4961021;28;19921;-82
2022/06/15 01:31:50;;;;;;;;;;;;;;;18.24;74.56;101078.22;5013714;28;19932;-82
2022/06/15 01:34:21;;;;;;;;;;;;;;;18.33;73.15;101070.69;5007567;28;20032;-81
2022/06/15 01:37:02;;;;;;;;;;;;;;;18.29;73.96;101072.16;5014239;28;19917;-82
2022/06/15 01:40:00;;;;;;;;;;;;;;;18.22;74.56;101066.69;5009638;28;20412;-82
2022/06/15 01:42:27;;;;;;;;;;;;;;;18.21;73.93;101078.59;4995158;28;19921;-82
2022/06/15 01:44:56;;;;;;;;;;;;;;;18.18;72.30;101062.66;5010433;28;19940;-82
2022/06/15 01:47:25;;;;;;;;;;;;;;;18.28;72.66;101084.91;4999311;28;20318;-83
2022/06/15 01:50:05;;;;;;;;;;;;;;;18.19;72.95;101085.28;5026914;28;19921;-83
2022/06/15 01:52:36;;;;;;;;;;;;;;;18.14;73.75;101088.59;5010192;28;20409;-83
2022/06/15 01:55:10;;;;;;;;;;;;;;;18.21;73.26;101086.75;4994173;28;19913;-83
2022/06/15 01:57:36;;;;;;;;;;;;;;;18.16;73.65;101086.53;5009185;28;19967;-82
2022/06/15 02:00:05;;;;;;;;;;;;;;;18.10;72.38;101090.06;5013399;28;19921;-82
2022/06/15 02:02:33;;;;;;;;;;;;;;;18.14;74.15;101081.28;5015266;28;20718;-82
2022/06/15 02:05:08;;;;;;;;;;;;;;;18.16;73.25;101089.25;5009327;28;19910;-82
2022/06/15 02:07:50;;;;;;;;;;;;;;;18.20;72.91;101082.38;4993085;28;19924;-81
2022/06/15 02:10:22;;;;;;;;;;;;;;;18.25;73.09;101079.03;5012222;28;19918;-82
2022/06/15 02:12:56;;;;;;;;;;;;;;;18.22;72.65;101091.16;5013102;28;19914;-81
2022/06/15 02:15:25;;;;;;;;;;;;;;;18.14;73.04;101083.16;5008295;28;19924;-80
2022/06/15 02:17:52;;;;;;;;;;;;;;;18.13;72.95;101089.66;4992784;28;20068;-81
2022/06/15 02:20:19;;;;;;;;;;;;;;;18.08;73.11;101089.41;5011808;28;19917;-82
2022/06/15 02:22:45;;;;;;;;;;;;;;;18.21;73.54;101097.63;5004872;28;19971;-80
2022/06/15 02:25:15;;;;;;;;;;;;;;;18.27;73.09;101105.00;5010843;28;19924;-82
2022/06/15 02:27:43;;;;;;;;;;;;;;;18.25;70.48;101092.66;5009571;28;19917;-81
2022/06/15 02:30:16;;;;;;;;;;;;;;;18.33;71.29;101103.34;5002110;28;20020;-82
2022/06/15 02:32:42;;;;;;;;;;;;;;;18.33;72.77;101101.50;5008108;28;19996;-82
2022/06/15 02:35:07;;;;;;;;;;;;;;;18.39;72.26;101094.38;5007273;28;20008;-82
2022/06/15 02:37:34;;;;;;;;;;;;;;;18.39;71.71;101108.00;5009130;28;20012;-81
2022/06/15 02:39:59;;;;;;;;;;;;;;;18.39;70.19;101097.13;5008644;28;19922;-82
2022/06/15 02:42:29;;;;;;;;;;;;;;;18.46;70.57;101108.03;5000582;28;19924;-83
2022/06/15 02:44:55;;;;;;;;;;;;;;;18.44;71.22;101113.69;5010525;28;19917;-79
2022/06/15 02:47:20;;;;;;;;;;;;;;;18.40;71.37;101109.66;5012133;28;19933;-82
2022/06/15 02:49:51;;;;;;;;;;;;;;;18.40;71.77;101115.09;5011519;28;21870;-82
2022/06/15 02:52:16;;;;;;;;;;;;;;;18.35;71.58;101107.56;5011365;28;20024;-81
2022/06/15 02:54:43;;;;;;;;;;;;;;;18.31;70.91;101103.56;5008240;28;20375;-82
2022/06/15 02:57:08;;;;;;;;;;;;;;;18.36;71.45;101102.97;5010407;28;20000;-82
2022/06/15 02:59:33;;;;;;;;;;;;;;;18.39;69.63;101104.44;5009866;28;20008;-82
2022/06/15 03:01:59;;;;;;;;;;;;;;;18.37;70.80;101109.25;5013181;28;19960;-82
2022/06/15 03:04:25;;;;;;;;;;;;;;;18.34;70.44;101105.88;5016448;28;19917;-82
2022/06/15 03:06:54;;;;;;;;;;;;;;;18.37;70.89;101114.69;5008100;28;19917;-81
2022/06/15 03:09:19;;;;;;;;;;;;;;;18.33;71.03;101119.69;5009013;28;19925;-82
2022/06/15 03:11:45;;;;;;;;;;;;;;;18.40;70.53;101115.09;5011612;28;19936;-80
2022/06/15 03:14:13;;;;;;;;;;;;;;;18.40;70.41;101125.16;5010133;28;19924;-82
2022/06/15 03:16:43;;;;;;;;;;;;;;;18.41;70.11;101129.59;4999907;28;19918;-82
2022/06/15 03:19:08;;;;;;;;;;;;;;;18.48;69.85;101127.75;5003528;28;19918;-81
2022/06/15 03:21:34;;;;;;;;;;;;;;;18.58;69.83;101127.38;5008011;28;19967;-81
2022/06/15 03:24:03;;;;;;;;;;;;;;;18.63;70.28;101136.59;5005425;28;20373;-80
2022/06/15 03:26:31;;;;;;;;;;;;;;;18.73;69.97;101126.19;5005630;28;19975;-80
2022/06/15 03:28:56;;;;;;;;;;;;;;;18.79;70.07;101123.72;5005281;28;20388;-81
2022/06/15 03:31:22;;;;;;;;;;;;;;;18.89;68.74;101125.00;5002528;28;19921;-82
2022/06/15 03:33:48;;;;;;;;;;;;;;;18.98;69.25;101133.81;4989889;28;19914;-82
2022/06/15 03:36:16;;;;;;;;;;;;;;;19.11;68.66;101127.59;5004030;28;20000;-80
2022/06/15 03:38:42;;;;;;;;;;;;;;;19.16;68.01;101131.38;5002347;28;19922;-82
2022/06/15 03:41:07;;;;;;;;;;;;;;;19.33;68.17;101139.16;5019977;28;20504;-81
2022/06/15 03:43:37;;;;;;;;;;;;;;;19.15;66.66;101135.16;5007608;28;19971;-83
2022/06/15 03:46:02;;;;;;;;;;;;;;;19.17;65.60;101133.06;5008018;28;19925;-81
2022/06/15 03:48:29;;;;;;;;;;;;;;;19.23;66.20;101130.56;5009556;28;20057;-81
2022/06/15 03:50:54;;;;;;;;;;;;;;;19.49;65.82;101130.56;5005903;28;19932;-84
2022/06/15 03:53:19;;;;;;;;;;;;;;;19.38;65.22;101139.38;4991708;28;19925;-82
2022/06/15 03:55:46;;;;;;;;;;;;;;;19.50;64.84;101132.28;5007525;28;19928;-78
2022/06/15 03:58:14;;;;;;;;;;;;;;;19.49;64.59;101125.13;5010492;28;20313;-83
2022/06/15 04:00:39;;;;;;;;;;;;;;;19.66;65.19;101130.16;5004743;28;19928;-83
2022/06/15 04:03:05;;;;;;;;;;;;;;;19.74;64.81;101143.66;5009466;28;20339;-81
2022/06/15 04:05:33;;;;;;;;;;;;;;;19.79;65.03;101146.56;5020652;28;20016;-83
2022/06/15 04:10:43;;;;;;;;;;;;;;;19.89;63.46;101149.72;5004403;28;19929;-82
2022/06/15 04:13:09;;;;;;;;;;;;;;;20.17;63.93;101154.09;5015323;28;19913;-80
2022/06/15 04:15:35;;;;;;;;;;;;;;;20.25;62.52;101156.59;5018277;28;20013;-81
2022/06/15 04:18:01;;;;;;;;;;;;;;;20.33;62.09;101163.72;5009174;28;20340;-81
2022/06/15 04:20:33;;;;;;;;;;;;;;;20.36;62.23;101157.84;5012690;28;19964;-83
2022/06/15 04:23:01;;;;;;;;;;;;;;;20.44;61.74;101161.19;5015181;28;19921;-83
2022/06/15 04:25:28;;;;;;;;;;;;;;;20.45;61.09;101160.13;5011536;28;19917;-84
2022/06/15 04:27:54;;;;;;;;;;;;;;;20.61;58.99;101150.66;5030531;28;19925;-83
2022/06/15 04:30:20;;;;;;;;;;;;;;;20.54;60.28;101154.44;5001807;28;20012;-84
2022/06/15 04:32:46;;;;;;;;;;;;;;;21.34;57.41;101149.44;5014972;28;20010;-84
2022/06/15 04:35:14;;;;;;;;;;;;;;;21.39;56.64;101154.25;5002838;28;20001;-90
2022/06/15 04:37:41;;;;;;;;;;;;;;;21.36;57.40;101152.81;5013443;28;19925;-82
2022/06/15 04:40:07;;;;;;;;;;;;;;;21.60;55.33;101159.41;4996137;28;19914;-82
2022/06/15 04:42:32;;;;;;;;;;;;;;;22.08;55.32;101166.19;5016105;28;19924;-82
2022/06/15 04:45:00;;;;;;;;;;;;;;;23.30;50.93;101158.03;5017742;28;20566;-85
2022/06/15 04:47:26;;;;;;;;;;;;;;;25.26;47.35;101156.78;5015410;28;19948;-84
2022/06/15 04:49:53;;;;;;;;;;;;;;;26.56;42.23;101160.53;5011696;28;20008;-85
2022/06/15 04:52:18;;;;;;;;;;;;;;;27.42;40.92;101154.34;5010907;28;19920;-85
2022/06/15 04:54:45;;;;;;;;;;;;;;;27.72;39.75;101156.53;4996139;28;20403;-85
2022/06/15 04:57:11;;;;;;;;;;;;;;;28.82;37.22;101158.63;5011118;28;19914;-86
2022/06/15 04:59:37;;;;;;;;;;;;;;;29.34;35.56;101160.50;5010111;28;20350;-85
2022/06/15 05:02:06;;;;;;;;;;;;;;;29.52;34.67;101161.88;5000114;28;19917;-85
2022/06/15 05:04:33;;;;;;;;;;;;;;;29.70;34.58;101166.06;5012399;28;19917;-87
2022/06/15 05:07:05;;;;;;;;;;;;;;;30.56;34.23;101169.03;5016337;28;19913;-83
2022/06/15 05:09:33;;;;;;;;;;;;;;;30.92;33.07;101175.28;5014242;28;19924;-83
2022/06/15 05:11:59;;;;;;;;;;;;;;;31.20;32.88;101179.28;5013526;28;20365;-87
2022/06/15 05:14:28;;;;;;;;;;;;;;;31.33;32.88;101178.66;5015985;28;19976;-86
2022/06/15 05:17:15;;;;;;;;;;;;;;;31.35;33.30;101181.13;5003137;28;20385;-85
2022/06/15 05:19:43;;;;;;;;;;;;;;;31.29;31.36;101183.09;5022114;28;19980;-85
2022/06/15 05:22:11;;;;;;;;;;;;;;;31.45;32.03;101183.06;5010917;28;19934;-86
2022/06/15 05:24:41;;;;;;;;;;;;;;;31.33;32.34;101181.41;5007109;28;19917;-85
2022/06/15 05:27:07;;;;;;;;;;;;;;;31.48;30.76;101188.03;5015580;28;19913;-87
2022/06/15 05:29:37;;;;;;;;;;;;;;;31.50;31.23;101183.84;5015096;28;19921;-87
2022/06/15 05:32:03;;;;;;;;;;;;;;;31.49;30.96;101190.53;5023606;28;20282;-86
2022/06/15 05:34:31;;;;;;;;;;;;;;;31.40;30.53;101196.91;5008398;28;19989;-86
2022/06/15 05:36:59;;;;;;;;;;;;;;;30.99;29.94;101200.78;5010393;28;19917;-90
2022/06/15 05:39:25;;;;;;;;;;;;;;;31.06;31.49;101201.28;5015365;28;19991;-89
2022/06/15 05:41:51;;;;;;;;;;;;;;;30.87;31.05;101211.38;4995612;28;19917;-83
2022/06/15 05:46:47;;;;;;;;;;;;;;;30.02;31.39;101214.84;5009883;28;19995;-84
2022/06/15 05:49:13;;;;;;;;;;;;;;;29.80;31.79;101212.34;5013244;28;20354;-84
2022/06/15 05:51:40;;;;;;;;;;;;;;;29.06;34.20;101219.91;5022463;28;19973;-82
2022/06/15 05:54:07;;;;;;;;;;;;;;;29.23;33.48;101226.06;5022652;28;19913;-87
2022/06/15 05:56:33;;;;;;;;;;;;;;;29.04;34.03;101216.56;5012232;28;20012;-85
2022/06/15 05:58:59;;;;;;;;;;;;;;;28.29;34.10;101236.06;5012706;28;19913;-86
2022/06/15 06:01:30;;;;;;;;;;;;;;;28.05;34.36;101234.75;5013524;28;19913;-88
2022/06/15 06:03:56;;;;;;;;;;;;;;;27.85;35.41;101232.66;5014841;28;19913;-84
2022/06/15 06:06:21;;;;;;;;;;;;;;;27.71;36.93;101237.75;5014559;28;19987;-83
2022/06/15 06:08:46;;;;;;;;;;;;;;;27.42;38.65;101235.25;5024324;28;19913;-84
2022/06/15 06:11:12;;;;;;;;;;;;;;;27.53;38.18;101237.03;5021840;28;19983;-83
2022/06/15 06:13:37;;;;;;;;;;;;;;;27.51;38.10;101238.38;5012279;28;19913;-80
2022/06/15 06:16:03;;;;;;;;;;;;;;;27.86;38.50;101235.19;5011279;28;19921;-82
2022/06/15 06:18:28;;;;;;;;;;;;;;;27.94;37.46;101239.38;5004454;28;19913;-83
2022/06/15 06:20:54;;;;;;;;;;;;;;;27.94;36.39;101236.63;5028104;28;19917;-82
2022/06/15 06:23:19;;;;;;;;;;;;;;;28.08;36.57;101245.31;5011036;28;20034;-82
2022/06/15 06:25:50;;;;;;;;;;;;;;;28.15;34.29;101240.38;5010968;28;19947;-83
2022/06/15 06:28:28;;;;;;;;;;;;;;;28.40;34.73;101240.56;4995239;28;19920;-85
2022/06/15 06:30:54;;;;;;;;;;;;;;;28.66;35.06;101242.66;5008601;28;19924;-85
2022/06/15 06:33:19;;;;;;;;;;;;;;;28.79;34.83;101237.50;5011316;28;19910;-88
2022/06/15 06:35:45;;;;;;;;;;;;;;;29.35;34.25;101244.38;4992193;28;19963;-84
2022/06/15 06:38:11;;;;;;;;;;;;;;;29.92;32.94;101242.56;5010107;28;20008;-82
2022/06/15 06:40:36;;;;;;;;;;;;;;;29.83;31.39;101245.06;5004815;28;20297;-84
2022/06/15 06:43:01;;;;;;;;;;;;;;;30.26;32.55;101238.16;5027374;28;19913;-83
2022/06/15 06:45:27;;;;;;;;;;;;;;;30.21;31.74;101249.22;5011080;28;19924;-83
2022/06/15 06:47:53;;;;;;;;;;;;;;;30.45;32.32;101243.09;5012119;28;20392;-87
2022/06/15 06:50:18;;;;;;;;;;;;;;;30.61;32.24;101246.69;5010669;28;20082;-83
2022/06/15 06:52:49;;;;;;;;;;;;;;;30.71;30.65;101250.25;5011196;28;19925;-84
2022/06/15 06:55:15;;;;;;;;;;;;;;;30.35;30.79;101257.00;5010302;28;19952;-83
2022/06/15 06:57:42;;;;;;;;;;;;;;;30.12;31.10;101259.19;5010999;28;19960;-86
2022/06/15 07:00:09;;;;;;;;;;;;;;;30.40;30.71;101252.28;5010562;28;19964;-87
2022/06/15 07:02:34;;;;;;;;;;;;;;;30.37;31.09;101251.97;5009973;28;19935;-86
2022/06/15 07:05:00;;;;;;;;;;;;;;;30.63;31.32;101258.34;5012628;28;19921;-83
2022/06/15 07:07:27;;;;;;;;;;;;;;;30.63;30.58;101255.56;5007152;28;19953;-82
2022/06/15 07:09:53;;;;;;;;;;;;;;;30.34;30.89;101258.94;5017867;28;19993;-83
2022/06/15 07:12:18;;;;;;;;;;;;;;;30.48;30.60;101254.50;5012473;28;19913;-82
2022/06/15 07:14:45;;;;;;;;;;;;;;;30.95;31.31;101263.53;5011844;28;19940;-87
2022/06/15 07:17:10;;;;;;;;;;;;;;;31.11;30.79;101258.75;5012071;28;19917;-85
2022/06/15 07:19:36;;;;;;;;;;;;;;;31.06;30.60;101264.31;5020443;28;20012;-85
2022/06/15 07:22:02;;;;;;;;;;;;;;;31.23;29.96;101262.00;5006517;28;20411;-84
2022/06/15 07:24:28;;;;;;;;;;;;;;;31.00;31.17;101251.56;5011425;28;19953;-83
2022/06/15 07:26:53;;;;;;;;;;;;;;;31.14;30.84;101263.75;5010089;28;19949;-84
2022/06/15 07:29:20;;;;;;;;;;;;;;;31.40;30.06;101264.47;5009982;28;20499;-84
2022/06/15 07:31:47;;;;;;;;;;;;;;;31.42;30.64;101264.16;4980648;28;20031;-85
2022/06/15 07:34:13;;;;;;;;;;;;;;;31.36;30.01;101265.31;4993458;28;20008;-83
2022/06/15 07:36:39;;;;;;;;;;;;;;;31.15;30.49;101264.56;5009540;28;19974;-84
2022/06/15 07:39:05;;;;;;;;;;;;;;;30.95;31.27;101268.25;4996007;28;19920;-84
2022/06/15 07:41:30;;;;;;;;;;;;;;;30.52;31.71;101273.34;5005125;28;20363;-84
2022/06/15 07:43:55;;;;;;;;;;;;;;;30.69;31.92;101276.63;5011123;28;19921;-84
2022/06/15 07:46:21;;;;;;;;;;;;;;;31.21;30.68;101275.38;5013414;28;20258;-85
2022/06/15 07:51:33;;;;;;;;;;;;;;;31.79;29.74;101280.31;5017114;28;19948;-85
2022/06/15 07:53:59;;;;;;;;;;;;;;;32.17;30.07;101284.25;5023753;28;19920;-83
2022/06/15 07:56:25;;;;;;;;;;;;;;;32.24;29.09;101281.13;4993720;28;19917;-85
2022/06/15 07:58:52;;;;;;;;;;;;;;;31.80;29.17;101282.00;5020041;28;20008;-84
2022/06/15 08:01:18;;;;;;;;;;;;;;;31.63;29.92;101287.97;5016307;28;20056;-83
2022/06/15 08:03:46;;;;;;;;;;;;;;;31.18;30.40;101281.47;4996159;28;20060;-83
2022/06/15 08:06:11;;;;;;;;;;;;;;;31.08;31.51;101281.53;5019537;28;20258;-87
2022/06/15 08:08:37;;;;;;;;;;;;;;;31.73;30.67;101290.66;5015360;28;19939;-84
2022/06/15 08:11:02;;;;;;;;;;;;;;;31.85;30.17;101286.69;5004836;28;19997;-84
2022/06/15 08:13:28;;;;;;;;;;;;;;;31.93;30.09;101283.28;5014982;28;19913;-81
2022/06/15 08:15:53;;;;;;;;;;;;;;;31.62;30.03;101289.06;5012648;28;19979;-84
2022/06/15 08:18:25;;;;;;;;;;;;;;;31.89;30.06;101282.19;5013102;28;19909;-84
2022/06/15 08:20:52;;;;;;;;;;;;;;;31.98;30.18;101291.63;5026624;28;19909;-83
2022/06/15 08:23:18;;;;;;;;;;;;;;;31.38;30.19;101283.34;5014604;28;19914;-84
2022/06/15 08:25:47;;;;;;;;;;;;;;;31.33;30.39;101286.97;5009984;28;19913;-84
2022/06/15 08:28:14;;;;;;;;;;;;;;;30.57;30.97;101295.53;5012629;28;19945;-84
2022/06/15 08:30:39;;;;;;;;;;;;;;;30.18;31.70;101290.50;5005923;28;19913;-83
2022/06/15 08:33:05;;;;;;;;;;;;;;;29.64;32.50;101298.22;4996573;28;19906;-83
2022/06/15 08:35:32;;;;;;;;;;;;;;;29.38;33.54;101288.97;5012027;28;19921;-83
2022/06/15 08:37:57;;;;;;;;;;;;;;;29.97;33.66;101293.31;5014066;28;19913;-82
2022/06/15 08:40:22;;;;;;;;;;;;;;;30.56;32.26;101293.88;5009572;28;20428;-82
2022/06/15 08:42:57;;;;;;;;;;;;;;;30.81;31.13;101304.91;5013512;28;20356;-83
2022/06/15 08:45:35;;;;;;;;;;;;;;;30.12;31.74;101299.97;5013049;28;20028;-82
2022/06/15 08:48:01;;;;;;;;;;;;;;;30.25;31.99;101303.03;5013268;28;19913;-83
2022/06/15 08:50:33;;;;;;;;;;;;;;;29.72;31.98;101309.91;5011401;28;20438;-82
2022/06/15 08:53:17;;;;;;;;;;;;;;;29.16;33.67;101305.78;5012058;28;20003;-84
2022/06/15 08:55:51;;;;;;;;;;;;;;;29.11;33.21;101302.19;5007940;28;19924;-85
2022/06/15 08:58:22;;;;;;;;;;;;;;;29.49;33.20;101312.00;5007608;28;19920;-85
2022/06/15 09:00:50;;;;;;;;;;;;;;;30.54;32.17;101307.19;5015489;28;19947;-84
2022/06/15 09:03:21;;;;;;;;;;;;;;;31.42;30.95;101303.06;4995959;28;19921;-84
2022/06/15 09:05:49;;;;;;;;;;;;;;;31.79;29.57;101308.13;5007827;28;20386;-84
2022/06/15 09:08:20;;;;;;;;;;;;;;;31.60;29.32;101307.16;4987927;28;19969;-83
2022/06/15 09:10:46;;;;;;;;;;;;;;;32.03;29.45;101304.66;5010326;28;20012;-83
2022/06/15 09:13:26;;;;;;;;;;;;;;;31.68;28.79;101312.94;5017223;28;20354;-85
2022/06/15 09:16:10;;;;;;;;;;;;;;;32.64;27.96;101320.84;5022823;28;19921;-86
2022/06/15 09:18:46;;;;;;;;;;;;;;;33.42;26.46;101316.88;5014503;28;19913;-82
2022/06/15 09:21:12;;;;;;;;;;;;;;;33.95;25.53;101312.25;4993084;28;19918;-82
2022/06/15 09:23:50;;;;;;;;;;;;;;;33.68;25.41;101310.16;5019422;28;20079;-83
2022/06/15 09:26:18;;;;;;;;;;;;;;;32.15;26.36;101322.66;5006169;28;20377;-84
2022/06/15 09:28:52;;;;;;;;;;;;;;;32.21;26.82;101319.81;5010522;28;19916;-80
2022/06/15 09:31:22;;;;;;;;;;;;;;;31.98;28.26;101327.75;5011890;28;19948;-82
2022/06/15 09:33:51;;;;;;;;;;;;;;;32.07;28.49;101320.47;5011391;28;19914;-83
2022/06/15 09:36:19;;;;;;;;;;;;;;;31.26;30.08;101316.19;5012564;28;20271;-83
2022/06/15 09:38:44;;;;;;;;;;;;;;;32.51;27.91;101330.69;5013848;28;19920;-85
2022/06/15 09:41:45;;;;;;;;;;;;;;;33.34;27.25;101314.78;5022889;28;20368;-84
2022/06/15 09:44:27;;;;;;;;;;;;;;;33.74;26.78;101311.72;4991308;28;20377;-87
2022/06/15 09:46:58;;;;;;;;;;;;;;;34.03;26.97;101317.16;5024457;28;19913;-93
2022/06/15 09:49:46;;;;;;;;;;;;;;;33.60;26.18;101317.25;5019385;28;19917;-85
2022/06/15 09:52:24;;;;;;;;;;;;;;;33.14;26.71;101323.41;5008738;28;19917;-82
2022/06/15 09:55:17;;;;;;;;;;;;;;;33.19;27.50;101329.72;5009908;28;19917;-86
2022/06/15 09:57:43;;;;;;;;;;;;;;;32.67;28.17;101327.78;4989908;28;20040;-83
2022/06/15 10:00:09;;;;;;;;;;;;;;;32.27;28.51;101329.78;5012166;28;19958;-85
2022/06/15 10:02:35;;;;;;;;;;;;;;;31.45;29.89;101320.00;5010706;28;19925;-85
2022/06/15 10:05:02;;;;;;;;;;;;;;;31.67;30.56;101325.16;4991097;28;19925;-85
2022/06/15 10:07:33;;;;;;;;;;;;;;;31.98;30.29;101336.09;5009213;28;19953;-83
2022/06/15 10:10:21;;;;;;;;;;;;;;;31.92;29.99;101337.25;5009301;28;19965;-82
2022/06/15 10:13:04;;;;;;;;;;;;;;;32.30;28.39;101331.97;5013383;28;19917;-82
2022/06/15 10:15:33;;;;;;;;;;;;;;;32.17;29.94;101334.31;5019401;28;20385;-84
2022/06/15 10:18:17;;;;;;;;;;;;;;;32.90;28.88;101326.16;5010723;28;19914;-84
2022/06/15 10:20:42;;;;;;;;;;;;;;;32.85;27.28;101327.03;5006427;28;20008;-82
2022/06/15 10:23:17;;;;;;;;;;;;;;;32.88;27.16;101345.94;4995430;28;19949;-81
2022/06/15 10:25:47;;;;;;;;;;;;;;;31.86;28.77;101330.06;5035348;28;19917;-87
2022/06/15 10:28:15;;;;;;;;;;;;;;;31.36;31.30;101330.03;5011144;28;19913;-86
2022/06/15 10:30:53;;;;;;;;;;;;;;;31.01;33.57;101328.22;5007723;28;19921;-84
2022/06/15 10:33:24;;;;;;;;;;;;;;;30.99;33.86;101327.66;5010197;28;20364;-86
2022/06/15 10:35:59;;;;;;;;;;;;;;;29.99;35.67;101321.59;5023886;28;19923;-85
2022/06/15 10:38:29;;;;;;;;;;;;;;;29.44;37.36;101325.84;4988592;28;19918;-85
2022/06/15 10:41:45;;;;;;;;;;;;;;;28.91;38.30;101322.22;5011862;28;19983;-85
2022/06/15 10:43:46;;;;;;;;;;;;;;;28.50;38.55;101325.56;5008390;28;19924;-84
2022/06/15 10:46:13;;;;;;;;;;;;;;;28.24;38.72;101323.63;5025889;28;19925;-85
2022/06/15 10:48:46;;;;;;;;;;;;;;;27.93;38.71;101329.75;5005315;28;19957;-83
2022/06/15 10:51:17;;;;;;;;;;;;;;;27.82;40.54;101324.34;5008581;28;19913;-81
2022/06/15 10:53:44;;;;;;;;;;;;;;;29.53;37.86;101318.66;4989909;28;19964;-83
2022/06/15 11:02:07;;;;;;;;;;;;;;;29.50;35.38;101324.75;5004732;28;20487;-82
2022/06/15 11:04:33;;;;;;;;;;;;;;;29.91;35.47;101324.06;4998025;28;19956;-80
2022/06/15 11:07:06;;;;;;;;;;;;;;;30.08;34.93;101319.91;5000262;28;19967;-79
2022/06/15 11:09:41;;;;;;;;;;;;;;;29.65;35.67;101329.50;5001182;28;19926;-87
2022/06/15 11:12:27;;;;;;;;;;;;;;;30.12;35.18;101330.47;5001063;28;20293;-81
2022/06/15 11:14:57;;;;;;;;;;;;;;;30.57;34.93;101328.81;4999724;28;19922;-81
2022/06/15 11:20:34;;;;;;;;;;;;;;;30.21;35.98;101328.81;5008285;28;19927;-82
2022/06/15 11:23:05;;;;;;;;;;;;;;;29.75;35.88;101320.41;4977287;28;20000;-83
2022/06/15 11:25:45;;;;;;;;;;;;;;;30.06;35.61;101313.81;5010453;28;19918;-81
2022/06/15 11:28:13;;;;;;;;;;;;;;;29.89;35.56;101316.00;5019939;28;20028;-81
2022/06/15 11:30:41;;;;;;;;;;;;;;;29.58;36.00;101317.84;5002611;28;20298;-82
2022/06/15 11:33:17;;;;;;;;;;;;;;;29.87;35.69;101330.13;4998739;28;20005;-83
2022/06/15 11:35:46;;;;;;;;;;;;;;;29.41;36.30;101331.94;5005139;28;19921;-83
2022/06/15 11:38:29;;;;;;;;;;;;;;;29.29;37.67;101323.00;4993221;28;19918;-81
2022/06/15 11:41:03;;;;;;;;;;;;;;;28.82;39.45;101336.59;5016051;28;19922;-89
2022/06/15 11:43:37;;;;;;;;;;;;;;;27.99;41.16;101333.38;5006728;28;19944;-85
2022/06/15 11:46:09;;;;;;;;;;;;;;;27.25;42.19;101333.88;5017776;28;19934;-85
2022/06/15 11:48:57;;;;;;;;;;;;;;;26.84;43.16;101342.38;5018238;28;19914;-85
2022/06/15 11:51:35;;;;;;;;;;;;;;;27.01;42.83;101338.75;5011091;28;19924;-86
2022/06/15 11:54:21;;;;;;;;;;;;;;;26.13;42.85;101344.78;5013508;28;20070;-89
2022/06/15 11:57:02;;;;;;;;;;;;;;;25.92;43.79;101337.22;5012992;28;19917;-85
2022/06/15 11:59:48;;;;;;;;;;;;;;;26.26;42.51;101338.13;5011790;28;19940;-87
2022/06/15 12:02:16;;;;;;;;;;;;;;;25.82;43.28;101337.84;5012737;28;19923;-87
2022/06/15 12:04:54;;;;;;;;;;;;;;;25.89;43.21;101342.16;5007431;28;20068;-86
2022/06/15 12:07:31;;;;;;;;;;;;;;;25.73;44.66;101345.69;5005488;28;20373;-87
2022/06/15 12:10:15;;;;;;;;;;;;;;;25.89;43.68;101344.91;5012452;28;19917;-86
2022/06/15 12:12:55;;;;;;;;;;;;;;;26.23;42.30;101338.63;5009590;28;20004;-86
2022/06/15 12:15:24;;;;;;;;;;;;;;;26.67;41.70;101345.19;5015303;28;19921;-86
2022/06/15 12:18:08;;;;;;;;;;;;;;;26.77;38.42;101350.00;5020106;28;20377;-86
2022/06/15 12:20:37;;;;;;;;;;;;;;;27.00;38.63;101348.16;5004559;28;20397;-88
2022/06/15 12:23:28;;;;;;;;;;;;;;;27.30;37.31;101342.22;5009770;28;19917;-88
2022/06/15 12:26:17;;;;;;;;;;;;;;;27.72;36.72;101341.63;5002718;28;19901;-87
2022/06/15 12:28:48;;;;;;;;;;;;;;;28.32;35.32;101343.34;5005486;28;20297;-83
2022/06/15 12:31:25;;;;;;;;;;;;;;;28.74;34.31;101333.47;5009516;28;19925;-82
2022/06/15 12:34:04;;;;;;;;;;;;;;;28.89;34.23;101332.72;4997292;28;19925;-82
2022/06/15 12:36:47;;;;;;;;;;;;;;;29.00;33.51;101320.63;5006769;28;19941;-82
2022/06/15 12:39:16;;;;;;;;;;;;;;;28.68;34.73;101324.31;5010028;28;20584;-81
2022/06/15 12:44:29;;;;;;;;;;;;;;;28.65;34.89;101315.72;5012554;28;19931;-85
2022/06/15 12:46:54;;;;;;;;;;;;;;;28.15;35.79;101321.38;5011636;28;19948;-85
2022/06/15 12:49:27;;;;;;;;;;;;;;;27.55;34.85;101317.66;5013068;28;20008;-85
2022/06/15 12:51:56;;;;;;;;;;;;;;;27.01;36.01;101306.47;5016654;28;20026;-85
2022/06/15 12:54:31;;;;;;;;;;;;;;;26.52;37.34;101303.53;5014272;28;19925;-85
2022/06/15 12:57:25;;;;;;;;;;;;;;;26.36;37.72;101299.69;5012045;28;19960;-84
2022/06/15 13:00:03;;;;;;;;;;;;;;;25.99;38.31;101299.34;5007735;28;20381;-84
2022/06/15 13:02:31;;;;;;;;;;;;;;;25.83;39.70;101296.28;5016182;28;20385;-85
2022/06/15 13:05:06;;;;;;;;;;;;;;;25.42;40.50;101284.47;5014873;28;20358;-84
2022/06/15 13:07:32;;;;;;;;;;;;;;;25.26;39.76;101285.25;5020073;28;19932;-83
2022/06/15 13:10:07;;;;;;;;;;;;;;;24.84;40.83;101274.41;5020044;28;19947;-84